createdAt,value
2019-02-21T00:00:47.805Z,49.08
2019-02-21T00:03:18.957Z,40.43
2019-02-21T00:05:49.033Z,44.93
2019-02-21T00:08:18.148Z,42.23
2019-02-21T00:10:47.190Z,43.65
2019-02-21T00:13:17.165Z,41.48
2019-02-21T00:15:46.222Z,43.55
2019-02-21T00:18:15.252Z,42.67
2019-02-21T00:20:45.126Z,45.73
2019-02-21T00:23:21.046Z,44.60
2019-02-21T00:26:13.600Z,40.65
2019-02-21T00:28:42.531Z,44.90
2019-02-21T00:31:13.661Z,42.75
2019-02-21T00:33:43.541Z,47.25
2019-02-21T00:36:12.527Z,50.35
2019-02-21T00:38:50.846Z,42.27
2019-02-21T00:41:21.898Z,50.17
2019-02-21T00:43:51.900Z,45.05
2019-02-21T00:46:21.921Z,47.10
2019-02-21T00:48:59.841Z,40.92
2019-02-21T00:51:35.934Z,34.05
2019-02-21T00:54:07.951Z,32.23
2019-02-21T00:56:36.854Z,27.70
2019-02-21T00:59:13.741Z,27.25
2019-02-21T01:01:52.047Z,28.98
2019-02-21T01:04:30.690Z,25.52
2019-02-21T01:06:59.638Z,29.82
2019-02-21T01:09:28.628Z,25.37
2019-02-21T01:12:00.886Z,26.90
2019-02-21T01:14:30.990Z,29.20
2019-02-21T01:17:00.004Z,28.07
2019-02-21T01:19:47.123Z,27.32
2019-02-21T01:22:39.069Z,27.15
2019-02-21T01:25:10.262Z,28.52
2019-02-21T01:27:40.253Z,21.70
2019-02-21T01:30:20.589Z,27.93
2019-02-21T01:32:50.600Z,28.10
2019-02-21T01:35:19.488Z,25.05
2019-02-21T01:37:57.225Z,28.92
2019-02-21T01:40:28.210Z,28.27
2019-02-21T01:42:58.157Z,28.50
2019-02-21T01:45:27.112Z,24.85
2019-02-21T01:47:56.104Z,30.00
2019-02-21T01:50:27.060Z,30.55
2019-02-21T01:52:55.964Z,25.45
2019-02-21T01:55:24.954Z,27.02
2019-02-21T01:57:54.004Z,25.80
2019-02-21T02:00:23.236Z,28.17
2019-02-21T02:02:52.217Z,28.50
2019-02-21T02:05:21.217Z,30.45
2019-02-21T02:07:50.061Z,26.80
2019-02-21T02:10:19.929Z,28.17
2019-02-21T02:12:48.784Z,28.75
2019-02-21T02:15:17.624Z,28.45
2019-02-21T02:17:46.645Z,24.95
2019-02-21T02:20:15.641Z,25.90
2019-02-21T02:22:44.587Z,31.10
2019-02-21T02:25:13.517Z,28.90
2019-02-21T02:27:42.541Z,24.82
2019-02-21T02:30:12.819Z,24.95
2019-02-21T02:32:41.887Z,27.00
2019-02-21T02:35:18.662Z,28.73
2019-02-21T02:37:47.606Z,29.23
2019-02-21T02:40:21.925Z,27.15
2019-02-21T02:42:57.869Z,27.82
2019-02-21T02:45:26.722Z,33.53
2019-02-21T02:47:55.674Z,26.30
2019-02-21T02:50:24.785Z,28.73
2019-02-21T02:52:53.804Z,27.35
2019-02-21T02:55:22.799Z,26.77
2019-02-21T02:57:51.633Z,27.27
2019-02-21T03:00:22.758Z,27.95
2019-02-21T03:02:51.589Z,26.48
2019-02-21T03:05:20.603Z,29.80
2019-02-21T03:07:49.569Z,30.20
2019-02-21T03:10:18.506Z,30.23
2019-02-21T03:12:47.422Z,24.63
2019-02-21T03:15:16.528Z,28.15
2019-02-21T03:17:45.360Z,24.87
2019-02-21T03:20:16.402Z,26.00
2019-02-21T03:22:51.119Z,30.02
2019-02-21T03:25:20.098Z,23.42
2019-02-21T03:27:49.038Z,25.02
2019-02-21T03:30:17.896Z,28.12
2019-02-21T03:32:46.749Z,33.95
2019-02-21T03:35:16.749Z,33.78
2019-02-21T03:37:45.971Z,33.58
2019-02-21T03:40:14.926Z,29.77
2019-02-21T03:42:43.867Z,29.00
2019-02-21T03:45:12.964Z,33.10
2019-02-21T03:47:41.813Z,32.73
2019-02-21T03:50:29.941Z,28.62
2019-02-21T03:52:58.802Z,32.30
2019-02-21T03:55:27.800Z,31.35
2019-02-21T03:57:56.710Z,29.80
2019-02-21T04:00:25.726Z,27.42
2019-02-21T04:02:54.729Z,33.25
2019-02-21T04:05:23.596Z,29.42
2019-02-21T04:07:52.521Z,32.75
2019-02-21T04:10:21.422Z,48.13
2019-02-21T04:12:50.340Z,49.98
2019-02-21T04:15:19.321Z,32.55
2019-02-21T04:17:48.333Z,32.95
2019-02-21T04:20:17.165Z,37.25
2019-02-21T04:22:46.090Z,33.13
2019-02-21T04:25:15.286Z,30.68
2019-02-21T04:27:44.189Z,30.62
2019-02-21T04:30:13.163Z,36.93
2019-02-21T04:32:42.125Z,27.60
2019-02-21T04:35:11.117Z,35.20
2019-02-21T04:37:40.699Z,34.23
2019-02-21T04:40:09.664Z,33.85
2019-02-21T04:42:38.452Z,33.70
2019-02-21T04:45:07.449Z,40.75
2019-02-21T04:47:36.380Z,41.53
2019-02-21T04:50:05.792Z,33.05
2019-02-21T04:52:34.688Z,42.75
2019-02-21T04:55:03.650Z,39.18
2019-02-21T04:57:32.526Z,30.75
2019-02-21T05:00:01.507Z,36.35
2019-02-21T05:02:30.407Z,39.92
2019-02-21T05:04:59.330Z,36.48
2019-02-21T05:07:28.377Z,41.45
2019-02-21T05:09:58.512Z,46.55
2019-02-21T05:12:27.644Z,34.48
2019-02-21T05:14:56.545Z,38.10
2019-02-21T05:17:25.480Z,42.13
2019-02-21T05:19:54.438Z,33.92
2019-02-21T05:22:23.260Z,42.17
2019-02-21T05:24:52.114Z,40.95
2019-02-21T05:27:24.808Z,38.10
2019-02-21T05:29:53.775Z,40.75
2019-02-21T05:32:44.556Z,40.17
2019-02-21T05:35:24.943Z,38.73
2019-02-21T05:38:12.243Z,36.90
2019-02-21T05:41:00.192Z,43.02
2019-02-21T05:43:54.382Z,39.67
2019-02-21T05:46:43.207Z,41.77
2019-02-21T05:49:26.636Z,40.15
2019-02-21T05:52:07.424Z,35.68
2019-02-21T05:54:47.889Z,38.38
2019-02-21T05:57:47.707Z,42.17
2019-02-21T06:00:36.957Z,43.42
2019-02-21T06:03:29.841Z,42.05
2019-02-21T06:06:17.640Z,42.50
2019-02-21T06:09:04.710Z,45.60
2019-02-21T06:11:44.318Z,39.48
2019-02-21T06:14:29.240Z,41.68
2019-02-21T06:17:29.547Z,43.55
2019-02-21T06:20:18.471Z,38.45
2019-02-21T06:23:25.116Z,45.45
2019-02-21T06:26:16.484Z,60.40
2019-02-21T06:28:55.810Z,47.58
2019-02-21T06:31:24.630Z,46.18
2019-02-21T06:33:54.656Z,44.38
2019-02-21T06:36:26.263Z,45.98
2019-02-21T06:38:55.323Z,40.73
2019-02-21T06:41:24.275Z,44.45
2019-02-21T06:43:53.169Z,39.55
2019-02-21T06:46:22.089Z,40.05
2019-02-21T06:48:51.694Z,38.95
2019-02-21T06:51:20.832Z,36.03
2019-02-21T06:53:55.681Z,39.90
2019-02-21T06:56:24.533Z,39.13
2019-02-21T06:58:53.364Z,43.40
2019-02-21T07:01:28.868Z,41.33
2019-02-21T07:03:57.337Z,37.38
2019-02-21T07:06:35.285Z,49.67
2019-02-21T07:09:20.620Z,44.75
2019-02-21T07:11:49.504Z,39.10
2019-02-21T07:14:26.459Z,41.92
2019-02-21T07:16:55.497Z,41.23
2019-02-21T07:19:24.522Z,36.90
2019-02-21T07:21:53.477Z,34.73
2019-02-21T07:24:31.334Z,39.48
2019-02-21T07:27:06.394Z,42.58
2019-02-21T07:29:35.369Z,40.58
2019-02-21T07:32:05.568Z,32.73
2019-02-21T07:34:36.492Z,40.00
2019-02-21T07:37:05.603Z,39.88
2019-02-21T07:39:36.331Z,37.63
2019-02-21T07:42:06.240Z,43.55
2019-02-21T07:44:35.223Z,32.60
2019-02-21T07:47:04.166Z,40.73
2019-02-21T07:49:33.100Z,34.95
2019-02-21T07:52:05.553Z,35.33
2019-02-21T07:54:34.545Z,35.55
2019-02-21T07:57:03.582Z,38.30
2019-02-21T07:59:32.520Z,33.75
2019-02-21T08:02:02.479Z,37.95
2019-02-21T08:04:31.458Z,36.20
2019-02-21T08:07:00.490Z,41.23
2019-02-21T08:09:31.632Z,34.55
2019-02-21T08:12:10.937Z,34.08
2019-02-21T08:14:39.877Z,32.08
2019-02-21T08:17:20.962Z,46.70
2019-02-21T08:20:15.857Z,36.17
2019-02-21T08:22:47.031Z,41.95
2019-02-21T08:25:15.974Z,41.95
2019-02-21T08:27:56.153Z,36.10
2019-02-21T08:30:34.546Z,33.53
2019-02-21T08:33:22.622Z,33.25
2019-02-21T08:35:54.071Z,34.87
2019-02-21T08:38:28.531Z,42.88
2019-02-21T08:40:59.532Z,32.88
2019-02-21T08:43:45.740Z,31.07
2019-02-21T08:46:28.957Z,30.25
2019-02-21T08:49:16.469Z,32.50
2019-02-21T08:51:45.446Z,30.17
2019-02-21T08:54:25.370Z,32.63
2019-02-21T08:56:56.350Z,33.35
2019-02-21T08:59:29.405Z,32.28
2019-02-21T09:01:59.116Z,33.78
2019-02-21T09:04:40.213Z,33.80
2019-02-21T09:07:09.349Z,34.40
2019-02-21T09:09:56.673Z,43.70
2019-02-21T09:12:25.722Z,30.90
2019-02-21T09:14:58.938Z,34.00
2019-02-21T09:17:32.118Z,28.37
2019-02-21T09:20:03.705Z,33.53
2019-02-21T09:22:32.797Z,35.67
2019-02-21T09:25:02.878Z,31.37
2019-02-21T09:27:36.163Z,35.10
2019-02-21T09:30:08.879Z,28.73
2019-02-21T09:32:41.993Z,32.45
2019-02-21T09:35:18.852Z,30.20
2019-02-21T09:37:56.693Z,33.03
2019-02-21T09:40:33.869Z,31.90
2019-02-21T09:43:02.899Z,31.97
2019-02-21T09:45:34.955Z,31.30
2019-02-21T09:48:12.238Z,33.23
2019-02-21T09:50:48.525Z,30.40
2019-02-21T09:53:22.781Z,27.67
2019-02-21T09:55:51.928Z,28.40
2019-02-21T09:58:20.902Z,29.80
2019-02-21T10:00:49.884Z,32.43
2019-02-21T10:03:18.868Z,34.67
2019-02-21T10:05:53.912Z,30.30
2019-02-21T10:08:27.128Z,29.57
2019-02-21T10:10:56.249Z,27.50
2019-02-21T10:13:25.219Z,25.80
2019-02-21T10:15:54.354Z,24.13
2019-02-21T10:18:29.433Z,28.97
2019-02-21T10:21:04.440Z,26.97
2019-02-21T10:23:33.394Z,34.70
2019-02-21T10:26:08.306Z,31.83
2019-02-21T10:28:38.245Z,24.10
2019-02-21T10:31:17.394Z,27.03
2019-02-21T10:33:47.522Z,24.80
2019-02-21T10:36:22.518Z,24.37
2019-02-21T10:38:51.426Z,33.50
2019-02-21T10:41:20.269Z,30.07
2019-02-21T10:43:49.121Z,26.70
2019-02-21T10:46:17.980Z,29.53
2019-02-21T10:48:46.913Z,34.30
2019-02-21T10:51:16.142Z,25.93
2019-02-21T10:53:45.131Z,26.20
2019-02-21T10:56:14.138Z,24.67
2019-02-21T10:58:43.130Z,27.97
2019-02-21T11:01:12.231Z,28.10
2019-02-21T11:03:41.138Z,27.97
2019-02-21T11:06:16.089Z,32.03
2019-02-21T11:09:19.357Z,28.30
2019-02-21T11:11:56.505Z,24.43
2019-02-21T11:14:26.439Z,24.23
2019-02-21T11:16:59.322Z,30.70
2019-02-21T11:19:28.468Z,21.17
2019-02-21T11:22:00.504Z,31.20
2019-02-21T11:24:32.682Z,28.53
2019-02-21T11:27:09.980Z,25.47
2019-02-21T11:29:44.949Z,27.50
2019-02-21T11:32:22.966Z,25.23
2019-02-21T11:35:06.107Z,24.10
2019-02-21T11:37:42.383Z,24.77
2019-02-21T11:40:02.336Z,33.50
2019-02-21T11:42:31.370Z,46.13
2019-02-21T11:45:04.305Z,27.67
2019-02-21T11:47:43.492Z,28.73
2019-02-21T11:50:17.840Z,27.03
2019-02-21T11:52:46.909Z,24.67
2019-02-21T11:55:20.562Z,26.67
2019-02-21T11:57:49.602Z,22.90
2019-02-21T12:00:23.398Z,24.80
2019-02-21T12:02:54.679Z,24.83
2019-02-21T12:05:31.963Z,22.87
2019-02-21T12:08:01.799Z,25.90
2019-02-21T12:10:31.873Z,21.67
2019-02-21T12:13:04.125Z,19.13
2019-02-21T12:15:34.122Z,22.20
2019-02-21T12:18:03.110Z,24.07
2019-02-21T12:20:39.860Z,27.47
2019-02-21T12:23:17.653Z,23.93
2019-02-21T12:25:54.561Z,25.77
2019-02-21T12:28:24.658Z,32.27
2019-02-21T12:30:54.775Z,24.67
2019-02-21T12:33:23.707Z,22.10
2019-02-21T12:35:52.656Z,22.77
2019-02-21T12:38:21.578Z,22.37
2019-02-21T12:40:50.596Z,20.80
2019-02-21T12:43:19.643Z,20.97
2019-02-21T12:45:48.680Z,22.87
2019-02-21T12:48:26.665Z,22.23
2019-02-21T12:51:01.678Z,25.47
2019-02-21T12:53:33.833Z,22.10
2019-02-21T12:56:02.774Z,28.10
2019-02-21T12:58:38.677Z,25.67
2019-02-21T13:01:13.139Z,26.60
2019-02-21T13:03:42.221Z,25.03
2019-02-21T13:06:17.441Z,23.43
2019-02-21T13:08:47.393Z,27.30
2019-02-21T13:11:22.412Z,26.97
2019-02-21T13:13:57.258Z,32.13
2019-02-21T13:16:29.837Z,21.67
2019-02-21T13:18:59.814Z,23.83
2019-02-21T13:21:46.123Z,28.90
2019-02-21T13:24:20.992Z,25.73
2019-02-21T13:26:52.058Z,30.27
2019-02-21T13:29:21.101Z,24.40
2019-02-21T13:31:50.001Z,24.27
2019-02-21T13:34:30.313Z,24.00
2019-02-21T13:36:59.230Z,23.67
2019-02-21T13:39:31.308Z,24.13
2019-02-21T13:42:02.316Z,31.27
2019-02-21T13:44:31.267Z,26.97
2019-02-21T13:47:14.402Z,31.00
2019-02-21T13:49:44.364Z,28.50
2019-02-21T13:52:24.449Z,27.50
2019-02-21T13:54:53.319Z,37.77
2019-02-21T13:57:22.246Z,35.90
2019-02-21T13:59:57.315Z,29.47
2019-02-21T14:02:34.441Z,35.00
2019-02-21T14:05:12.669Z,26.77
2019-02-21T14:07:42.627Z,40.13
2019-02-21T14:10:11.768Z,38.33
2019-02-21T14:12:40.756Z,34.17
2019-02-21T14:15:14.442Z,30.87
2019-02-21T14:17:43.444Z,31.90
2019-02-21T14:20:13.906Z,31.40
2019-02-21T14:22:42.836Z,32.57
2019-02-21T14:25:14.820Z,33.10
2019-02-21T14:27:43.810Z,32.10
2019-02-21T14:30:14.936Z,34.27
2019-02-21T14:32:43.950Z,32.10
2019-02-21T14:35:16.023Z,33.47
2019-02-21T14:37:45.061Z,41.20
2019-02-21T14:40:14.063Z,37.03
2019-02-21T14:42:43.044Z,33.60
2019-02-21T14:45:17.406Z,37.63
2019-02-21T14:47:46.259Z,38.00
2019-02-21T14:50:16.281Z,34.87
2019-02-21T14:52:45.281Z,35.77
2019-02-21T14:55:14.406Z,33.03
2019-02-21T14:57:43.394Z,34.80
2019-02-21T15:00:20.496Z,29.20
2019-02-21T15:02:49.571Z,30.70
2019-02-21T15:05:18.846Z,35.90
2019-02-21T15:07:47.854Z,32.37
2019-02-21T15:10:16.848Z,34.90
2019-02-21T15:12:45.799Z,34.13
2019-02-21T15:15:18.446Z,36.23
2019-02-21T15:17:47.393Z,26.50
2019-02-21T15:20:18.033Z,33.27
2019-02-21T15:22:54.144Z,34.83
2019-02-21T15:25:23.301Z,32.60
2019-02-21T15:27:52.202Z,30.23
2019-02-21T15:30:21.102Z,31.80
2019-02-21T15:32:50.118Z,33.27
2019-02-21T15:35:19.625Z,33.80
2019-02-21T15:37:48.849Z,28.20
2019-02-21T15:40:19.849Z,29.53
2019-02-21T15:42:48.876Z,30.57
2019-02-21T15:45:24.428Z,22.97
2019-02-21T15:47:59.774Z,20.70
2019-02-21T15:50:28.670Z,19.23
2019-02-21T15:52:57.568Z,18.73
2019-02-21T15:55:26.410Z,19.07
2019-02-21T15:58:03.229Z,15.80
2019-02-21T16:00:26.058Z,17.43
2019-02-21T16:02:54.905Z,18.63
2019-02-21T16:05:23.858Z,31.57
2019-02-21T16:07:53.824Z,14.97
2019-02-21T16:10:23.042Z,17.30
2019-02-21T16:12:52.410Z,17.50
2019-02-21T16:15:24.553Z,16.07
2019-02-21T16:17:53.501Z,20.30
2019-02-21T16:20:24.448Z,14.97
2019-02-21T16:22:53.321Z,20.30
2019-02-21T16:25:22.320Z,22.50
2019-02-21T16:27:54.953Z,16.30
2019-02-21T16:30:36.357Z,18.30
2019-02-21T16:33:06.329Z,18.53
2019-02-21T16:35:35.433Z,19.60
2019-02-21T16:38:04.482Z,16.90
2019-02-21T16:40:33.507Z,15.90
2019-02-21T16:43:07.962Z,22.33
2019-02-21T16:45:53.669Z,22.17
2019-02-21T16:48:26.724Z,17.23
2019-02-21T16:50:55.756Z,22.90
2019-02-21T16:53:25.978Z,17.37
2019-02-21T16:56:05.137Z,17.40
2019-02-21T16:58:34.021Z,18.07
2019-02-21T17:01:02.956Z,23.92
2019-02-21T17:03:38.887Z,26.02
2019-02-21T17:06:15.821Z,20.80
2019-02-21T17:08:45.178Z,16.60
2019-02-21T17:11:21.441Z,17.20
2019-02-21T17:13:51.441Z,18.23
2019-02-21T17:16:20.542Z,16.10
2019-02-21T17:18:49.544Z,17.13
2019-02-21T17:21:21.733Z,16.45
2019-02-21T17:23:51.727Z,17.80
2019-02-21T17:26:21.798Z,16.53
2019-02-21T17:28:51.703Z,16.03
2019-02-21T17:31:23.244Z,19.52
2019-02-21T17:33:52.224Z,16.75
2019-02-21T17:36:23.228Z,16.73
2019-02-21T17:38:52.124Z,20.30
2019-02-21T17:41:23.038Z,17.57
2019-02-21T17:43:57.198Z,17.05
2019-02-21T17:46:26.449Z,16.00
2019-02-21T17:48:55.563Z,18.80
2019-02-21T17:51:25.716Z,19.03
2019-02-21T17:53:54.793Z,16.95
2019-02-21T17:56:28.937Z,21.40
2019-02-21T17:58:57.882Z,18.90
2019-02-21T18:01:42.246Z,25.92
2019-02-21T18:04:11.234Z,21.37
2019-02-21T18:06:40.283Z,23.42
2019-02-21T18:09:21.160Z,20.97
2019-02-21T18:11:52.115Z,23.00
2019-02-21T18:14:28.985Z,24.60
2019-02-21T18:16:59.257Z,19.20
2019-02-21T18:19:32.193Z,19.30
2019-02-21T18:22:07.297Z,19.90
2019-02-21T18:24:36.169Z,23.35
2019-02-21T18:27:05.350Z,21.00
2019-02-21T18:29:36.465Z,21.07
2019-02-21T18:32:06.521Z,21.35
2019-02-21T18:34:35.542Z,22.23
2019-02-21T18:37:05.962Z,22.60
2019-02-21T18:39:35.932Z,21.10
2019-02-21T18:42:05.136Z,20.10
2019-02-21T18:44:43.279Z,24.37
2019-02-21T18:47:12.152Z,19.32
2019-02-21T18:50:00.333Z,23.02
2019-02-21T18:52:29.323Z,18.20
2019-02-21T18:54:58.221Z,25.45
2019-02-21T18:57:40.089Z,23.40
2019-02-21T19:00:16.454Z,25.50
2019-02-21T19:02:46.560Z,21.85
2019-02-21T19:05:15.707Z,33.40
2019-02-21T19:07:44.708Z,25.10
2019-02-21T19:10:15.357Z,22.82
2019-02-21T19:12:44.388Z,27.90
2019-02-21T19:15:14.329Z,21.20
2019-02-21T19:17:43.210Z,22.20
2019-02-21T19:20:15.055Z,31.07
2019-02-21T19:22:51.046Z,24.32
2019-02-21T19:25:20.423Z,24.15
2019-02-21T19:27:49.357Z,23.63
2019-02-21T19:30:25.787Z,32.50
2019-02-21T19:33:05.182Z,28.80
2019-02-21T19:35:40.134Z,25.35
2019-02-21T19:38:10.684Z,26.40
2019-02-21T19:40:41.162Z,23.52
2019-02-21T19:43:10.175Z,20.37
2019-02-21T19:45:42.216Z,23.30
2019-02-21T19:48:13.213Z,26.80
2019-02-21T19:51:03.408Z,32.03
2019-02-21T19:53:52.111Z,25.47
2019-02-21T19:56:23.287Z,23.80
2019-02-21T19:59:03.774Z,24.45
2019-02-21T20:01:35.244Z,22.20
2019-02-21T20:04:14.516Z,22.33
2019-02-21T20:06:54.994Z,26.97
2019-02-21T20:09:31.153Z,23.57
2019-02-21T20:12:04.625Z,22.25
2019-02-21T20:14:33.633Z,31.40
2019-02-21T20:17:09.858Z,24.33
2019-02-21T20:19:38.791Z,26.00
2019-02-21T20:22:07.781Z,27.63
2019-02-21T20:24:36.689Z,24.45
2019-02-21T20:27:05.789Z,28.02
2019-02-21T20:29:35.744Z,24.72
2019-02-21T20:32:07.533Z,27.60
2019-02-21T20:34:36.533Z,24.25
2019-02-21T20:37:11.422Z,24.10
2019-02-21T20:39:40.411Z,24.53
2019-02-21T20:42:09.569Z,22.20
2019-02-21T20:44:38.576Z,28.77
2019-02-21T20:47:11.452Z,33.88
2019-02-21T20:49:40.448Z,31.12
2019-02-21T20:52:10.436Z,31.95
2019-02-21T20:54:45.481Z,30.12
2019-02-21T20:57:15.478Z,33.38
2019-02-21T20:59:44.503Z,28.95
2019-02-21T21:02:14.059Z,26.42
2019-02-21T21:04:45.963Z,30.80
2019-02-21T21:07:25.140Z,35.28
2019-02-21T21:09:50.895Z,29.00
2019-02-21T21:12:25.334Z,35.90
2019-02-21T21:14:56.423Z,25.57
2019-02-21T21:17:37.396Z,32.90
2019-02-21T21:20:16.443Z,31.02
2019-02-21T21:22:45.274Z,29.35
2019-02-21T21:25:20.355Z,27.63
2019-02-21T21:27:50.286Z,25.90
2019-02-21T21:30:19.497Z,26.87
2019-02-21T21:32:48.529Z,30.05
2019-02-21T21:35:19.710Z,26.20
2019-02-21T21:37:48.752Z,27.85
2019-02-21T21:40:21.990Z,30.12
2019-02-21T21:42:51.022Z,32.40
2019-02-21T21:45:21.060Z,29.33
2019-02-21T21:48:09.498Z,27.02
2019-02-21T21:50:39.584Z,25.08
2019-02-21T21:53:08.512Z,28.40
2019-02-21T21:55:37.625Z,23.87
2019-02-21T21:58:16.532Z,26.43
2019-02-21T22:00:46.538Z,26.02
2019-02-21T22:03:18.665Z,34.40
2019-02-21T22:05:47.770Z,28.55
2019-02-21T22:08:16.922Z,29.12
2019-02-21T22:10:45.947Z,30.27
2019-02-21T22:13:15.855Z,27.15
2019-02-21T22:15:44.852Z,28.25
2019-02-21T22:18:31.925Z,31.20
2019-02-21T22:21:01.900Z,30.83
2019-02-21T22:23:32.957Z,33.33
2019-02-21T22:26:02.066Z,33.02
2019-02-21T22:28:31.048Z,34.90
2019-02-21T22:31:08.318Z,31.02
2019-02-21T22:33:38.585Z,29.05
2019-02-21T22:36:08.586Z,32.28
2019-02-21T22:38:42.670Z,31.90
2019-02-21T22:41:12.513Z,26.77
2019-02-21T22:43:41.542Z,28.27
2019-02-21T22:46:18.832Z,28.70
2019-02-21T22:48:47.870Z,29.60
2019-02-21T22:51:16.881Z,32.17
2019-02-21T22:53:45.744Z,35.25
2019-02-21T22:56:14.691Z,30.45
2019-02-21T22:58:45.259Z,29.47
2019-02-21T23:01:35.129Z,29.70
2019-02-21T23:04:30.881Z,33.23
2019-02-21T23:07:21.790Z,30.23
2019-02-21T23:09:50.982Z,30.27
2019-02-21T23:12:23.476Z,38.70
2019-02-21T23:14:52.421Z,33.33
2019-02-21T23:17:29.476Z,32.87
2019-02-21T23:19:58.385Z,40.13
2019-02-21T23:22:27.744Z,37.78
2019-02-21T23:24:57.631Z,36.83
2019-02-21T23:27:27.647Z,32.83
2019-02-21T23:29:56.981Z,32.83
2019-02-21T23:32:25.950Z,41.73
2019-02-21T23:34:56.788Z,40.67
2019-02-21T23:37:26.705Z,37.73
2019-02-21T23:39:56.450Z,37.83
2019-02-21T23:42:31.901Z,32.60
2019-02-21T23:45:03.066Z,40.27
2019-02-21T23:47:32.139Z,32.70
2019-02-21T23:50:01.381Z,33.73
2019-02-21T23:52:30.318Z,36.58
2019-02-21T23:54:59.258Z,36.00
2019-02-21T23:57:36.449Z,34.07
